Shinano Maru — JD2842 — position and weather

sailwx.info

Track history (hours):
 
Tides and Currents Weather Stations Pressure Air Temp Water Temp Dewpoint Dewpoint Depression Visibility Wind Speed Wind Dir Waves Ship Positions

Shinano Maru

Last reported at 2018-Feb-24 09:59 UTC. Time now 2018-Feb-24 10:09 UTC.
Position N 35°17' E 139°41'.

Length 38 m; draft 3 m.

Type: Tug. MMSI: 431000795.

Date/timePositionNaut miles runAvg speedWind from/ knotsBaromVisibWave heightAir tempDewpointWater temp
2018-Feb-24 09:59N 35°17' E 139°41'0 0.0
2018-Feb-24 09:30N 35°17' E 139°41'0 0.0
2018-Feb-24 09:00N 35°17' E 139°41'0 0.0
2018-Feb-24 08:30N 35°17' E 139°41'0 0.0
2018-Feb-24 08:00N 35°17' E 139°41'0 0.0
2018-Feb-24 07:30N 35°17' E 139°41'0 0.0
2018-Feb-24 07:00N 35°17' E 139°41'0 0.0
2018-Feb-24 06:30N 35°17' E 139°41'0 0.0
2018-Feb-24 06:00N 35°17' E 139°41'0 0.0
2018-Feb-24 05:30N 35°17' E 139°41'0 0.0
2018-Feb-24 05:00N 35°17' E 139°41'0 0.0
2018-Feb-24 04:30N 35°17' E 139°41'4 8.6
2018-Feb-24 04:00N 35°21' E 139°42'611.3
2018-Feb-24 03:30N 35°25' E 139°47'611.4
2018-Feb-24 03:00N 35°30' E 139°51'610.5
2018-Feb-24 02:24N 35°34' E 139°58'1 2.5
2018-Feb-24 01:53N 35°33' E 139°56'4 9.6
2018-Feb-24 01:30N 35°30' E 139°53'510.9
2018-Feb-24 01:01N 35°27' E 139°48'3 6.2
2018-Feb-24 00:30N 35°28' E 139°44'4 4.4
2018-Feb-23 23:30N 35°24' E 139°42'611.4
2018-Feb-23 23:00N 35°18' E 139°42'1 2.3
2018-Feb-23 22:30N 35°17' E 139°41'0 0.0
2018-Feb-23 22:00N 35°17' E 139°41'0 0.0
2018-Feb-23 21:30N 35°17' E 139°41'0 0.0
2018-Feb-23 21:00N 35°17' E 139°41'0 0.0
2018-Feb-23 20:30N 35°17' E 139°41'0 0.0
2018-Feb-23 19:59N 35°17' E 139°41'0 0.0
2018-Feb-23 19:30N 35°17' E 139°41'0 0.0
2018-Feb-23 19:00N 35°17' E 139°41'0 0.0
2018-Feb-23 18:30N 35°17' E 139°41'0 0.0
2018-Feb-23 18:00N 35°17' E 139°41'0 0.0
2018-Feb-23 17:30N 35°17' E 139°41'0 0.0
2018-Feb-23 17:00N 35°17' E 139°41'0 0.0
2018-Feb-23 16:30N 35°17' E 139°41'0 0.0
2018-Feb-23 16:00N 35°17' E 139°41'0 0.0
2018-Feb-23 15:30N 35°17' E 139°41'0 0.0
2018-Feb-23 15:00N 35°17' E 139°41'0 0.0
2018-Feb-23 14:30N 35°17' E 139°41'0 0.0
2018-Feb-23 13:59N 35°17' E 139°41'0 0.0
2018-Feb-23 13:30N 35°17' E 139°41'0 0.0
2018-Feb-23 13:00N 35°17' E 139°41'0 0.0
2018-Feb-23 12:30N 35°17' E 139°41'0 0.0
2018-Feb-23 12:00N 35°17' E 139°41'0 0.0
2018-Feb-23 11:30N 35°17' E 139°41'0 0.0
2018-Feb-23 11:00N 35°17' E 139°41'0 0.0
2018-Feb-23 10:30N 35°17' E 139°41'0 0.0
2018-Feb-23 10:00N 35°17' E 139°41'0 0.0
2018-Feb-23 09:30N 35°17' E 139°41'0 0.0
2018-Feb-23 09:00N 35°17' E 139°41'0 0.0
2018-Feb-23 08:30N 35°17' E 139°41'0 0.0
2018-Feb-23 08:00N 35°17' E 139°41'0 0.0
2018-Feb-23 07:30N 35°17' E 139°41'0 0.0
2018-Feb-23 07:00N 35°17' E 139°41'0 0.0
2018-Feb-23 06:29N 35°17' E 139°41'2 4.4
2018-Feb-23 06:00N 35°19' E 139°40'0 0.1
2018-Feb-23 05:30N 35°19' E 139°40'0 0.0
2018-Feb-23 05:01N 35°19' E 139°40'0 0.0
2018-Feb-23 04:31N 35°19' E 139°40'0 0.0
2018-Feb-23 04:01N 35°19' E 139°40'0 0.0
2018-Feb-23 03:31N 35°19' E 139°40'0 0.1
2018-Feb-23 03:01N 35°19' E 139°40'0 0.0
2018-Feb-23 02:30N 35°19' E 139°40'0 0.0
2018-Feb-23 02:00N 35°19' E 139°40'1 2.2
2018-Feb-23 01:31N 35°20' E 139°41'2 3.3
2018-Feb-23 01:01N 35°21' E 139°42'611.9
2018-Feb-23 00:30N 35°16' E 139°46'511.0
2018-Feb-23 00:00N 35°11' E 139°47'1 1.3
2018-Feb-22 23:30N 35°10' E 139°47'1 1.2
2018-Feb-22 23:00N 35°11' E 139°47'4 7.4
2018-Feb-22 22:30N 35°14' E 139°46'612.5
2018-Feb-22 22:00N 35°20' E 139°43'5 9.3
2018-Feb-22 21:31N 35°24' E 139°44'4 7.3
2018-Feb-22 21:01N 35°21' E 139°42'4 6.8
2018-Feb-22 20:26N 35°17' E 139°41'0 0.0
2018-Feb-22 20:00N 35°17' E 139°41'0 0.0
2018-Feb-22 19:30N 35°17' E 139°41'0 0.0
2018-Feb-22 19:00N 35°17' E 139°41'0 0.0
2018-Feb-22 18:30N 35°17' E 139°41'0 0.0
2018-Feb-22 18:00N 35°17' E 139°41'0 0.0
2018-Feb-22 17:30N 35°17' E 139°41'0 0.0
2018-Feb-22 17:00N 35°17' E 139°41'0 0.0
2018-Feb-22 16:30N 35°17' E 139°41'0 0.0
2018-Feb-22 16:00N 35°17' E 139°41'0 0.0
2018-Feb-22 15:30N 35°17' E 139°41'0 0.0
2018-Feb-22 15:00N 35°17' E 139°41'0 0.0
2018-Feb-22 14:30N 35°17' E 139°41'0 0.0
2018-Feb-22 14:00N 35°17' E 139°41'0 0.0
2018-Feb-22 13:30N 35°17' E 139°41'0 0.0
2018-Feb-22 13:00N 35°17' E 139°41'0 0.0
2018-Feb-22 12:30N 35°17' E 139°41'0 0.0
2018-Feb-22 12:00N 35°17' E 139°41'0 0.0
2018-Feb-22 11:29N 35°17' E 139°41'0 0.0
2018-Feb-22 11:00N 35°17' E 139°41'0 0.0
2018-Feb-22 10:30N 35°17' E 139°41'0 0.0
2018-Feb-22 10:00N 35°17' E 139°41'0 0.0
2018-Feb-22 09:30N 35°17' E 139°41'0 0.0
2018-Feb-22 09:00N 35°17' E 139°41'0 0.0
2018-Feb-22 08:30N 35°17' E 139°41'0 0.0
2018-Feb-22 08:00N 35°17' E 139°41'0 0.0
2018-Feb-22 07:30N 35°17' E 139°41'0 0.0
2018-Feb-22 07:00N 35°17' E 139°41'0 0.0
2018-Feb-22 06:30N 35°17' E 139°41'0 0.0
2018-Feb-22 06:00N 35°17' E 139°41'0 0.0
2018-Feb-22 05:30N 35°17' E 139°41'0 0.0
2018-Feb-22 05:00N 35°17' E 139°41'0 0.0
2018-Feb-22 04:30N 35°17' E 139°41'0 0.1
2018-Feb-22 04:00N 35°17' E 139°41'5 9.4
2018-Feb-22 03:30N 35°15' E 139°46'1 1.7
2018-Feb-22 02:59N 35°15' E 139°46'612.5
2018-Feb-22 02:30N 35°20' E 139°42'612.2
2018-Feb-22 02:01N 35°26' E 139°45'910.7
2018-Feb-22 01:08N 35°31' E 139°55'0 1.7
2018-Feb-22 00:59N 35°30' E 139°56'1 1.0
2018-Feb-22 00:30N 35°31' E 139°56'4 7.9
2018-Feb-22 00:00N 35°28' E 139°52'611.2
2018-Feb-21 23:30N 35°24' E 139°48'611.2
2018-Feb-21 23:00N 35°19' E 139°44'4 7.2
2018-Feb-21 22:29N 35°17' E 139°41'0 0.0
2018-Feb-21 22:00N 35°17' E 139°41'0 0.0
2018-Feb-21 21:31N 35°17' E 139°41'0 0.0
2018-Feb-21 21:00N 35°17' E 139°41'0 0.0
2018-Feb-21 20:30N 35°17' E 139°41'0 0.0
2018-Feb-21 20:00N 35°17' E 139°41'0 0.0
2018-Feb-21 19:30N 35°17' E 139°41'0 0.0
2018-Feb-21 19:01N 35°17' E 139°41'0 0.0
2018-Feb-21 18:30N 35°17' E 139°41'0 0.0
2018-Feb-21 18:00N 35°17' E 139°41'0 0.0
2018-Feb-21 17:31N 35°17' E 139°41'0 0.0
2018-Feb-21 17:00N 35°17' E 139°41'0 0.0
2018-Feb-21 16:30N 35°17' E 139°41'0 0.0
2018-Feb-21 16:00N 35°17' E 139°41'0 0.0
2018-Feb-21 15:30N 35°17' E 139°41'0 0.0
2018-Feb-21 15:00N 35°17' E 139°41'0 0.0
2018-Feb-21 14:30N 35°17' E 139°41'0 0.0
2018-Feb-21 14:01N 35°17' E 139°41'0 0.0
2018-Feb-21 13:31N 35°17' E 139°41'0 0.0
2018-Feb-21 13:00N 35°17' E 139°41'0 0.0
2018-Feb-21 12:30N 35°17' E 139°41'0 0.0
2018-Feb-21 12:00N 35°17' E 139°41'0 0.0
2018-Feb-21 11:30N 35°17' E 139°41'0 0.0
2018-Feb-21 11:00N 35°17' E 139°41'0 0.0
2018-Feb-21 10:30N 35°17' E 139°41'0 0.0
2018-Feb-21 10:00N 35°17' E 139°41'0 0.0
2018-Feb-21 09:29N 35°17' E 139°41'0 0.0
2018-Feb-21 09:00N 35°17' E 139°41'0 0.0
2018-Feb-21 08:30N 35°17' E 139°41'0 0.0
2018-Feb-21 08:00N 35°17' E 139°41'0 0.0
2018-Feb-21 07:30N 35°17' E 139°41'0 0.0
2018-Feb-21 07:00N 35°17' E 139°41'2 3.7
2018-Feb-21 06:30N 35°17' E 139°43'611.8
2018-Feb-21 06:00N 35°12' E 139°46'611.6
2018-Feb-21 05:30N 35°18' E 139°44'612.4
2018-Feb-21 05:00N 35°24' E 139°43'4 8.8
2018-Feb-21 04:30N 35°23' E 139°48'2 4.1
2018-Feb-21 04:01N 35°21' E 139°49'0 0.2
2018-Feb-21 03:29N 35°21' E 139°49'2 4.1
2018-Feb-21 03:00N 35°22' E 139°47'2 4.8
2018-Feb-21 02:30N 35°20' E 139°45'3 6.7
2018-Feb-21 02:00N 35°17' E 139°44'510.7
2018-Feb-21 01:30N 35°12' E 139°46'510.7
2018-Feb-21 01:00N 35°17' E 139°45'612.2
2018-Feb-21 00:31N 35°23' E 139°42'713.9
2018-Feb-21 00:00N 35°27' E 139°49'710.6
2018-Feb-20 23:22N 35°31' E 139°56'0 0.5
2018-Feb-20 23:00N 35°31' E 139°56'1 1.1
2018-Feb-20 22:29N 35°30' E 139°55'3 7.2
2018-Feb-20 22:00N 35°28' E 139°52'611.3
2018-Feb-20 21:30N 35°24' E 139°47'510.7
2018-Feb-20 21:00N 35°21' E 139°43'4 7.6
2018-Feb-20 20:30N 35°17' E 139°41'0 0.0
2018-Feb-20 20:00N 35°17' E 139°41'0 0.1
2018-Feb-20 19:30N 35°17' E 139°41'0 0.1
2018-Feb-20 19:00N 35°17' E 139°41'0 0.0
2018-Feb-20 18:30N 35°17' E 139°41'0 0.0
2018-Feb-20 18:00N 35°17' E 139°41'0 0.1
2018-Feb-20 17:30N 35°17' E 139°41'0 0.1
2018-Feb-20 17:00N 35°17' E 139°41'0 0.0
2018-Feb-20 16:30N 35°17' E 139°41'0 0.0
2018-Feb-20 16:00N 35°17' E 139°41'0 0.1
2018-Feb-20 15:30N 35°17' E 139°41'0 0.1
2018-Feb-20 15:00N 35°17' E 139°41'0 0.1
2018-Feb-20 14:30N 35°17' E 139°41'0 0.0
2018-Feb-20 14:00N 35°17' E 139°41'0 0.1
2018-Feb-20 13:30N 35°17' E 139°41'0 0.0
2018-Feb-20 13:00N 35°17' E 139°41'0 0.0
2018-Feb-20 12:30N 35°17' E 139°41'0 0.0
2018-Feb-20 12:00N 35°17' E 139°41'0 0.0
2018-Feb-20 11:30N 35°17' E 139°41'0 0.0
2018-Feb-20 11:00N 35°17' E 139°41'0 0.0
2018-Feb-20 10:30N 35°17' E 139°41'0 0.0
2018-Feb-20 09:59N 35°17' E 139°41'0 0.0
2018-Feb-20 09:30N 35°17' E 139°41'0 0.0
2018-Feb-20 09:00N 35°17' E 139°41'0 0.0
2018-Feb-20 08:30N 35°17' E 139°41'0 0.0
2018-Feb-20 08:00N 35°17' E 139°41'0 0.0
2018-Feb-20 07:30N 35°17' E 139°41'0 0.1
2018-Feb-20 07:00N 35°17' E 139°41'0 0.1
2018-Feb-20 06:29N 35°17' E 139°41'0 0.0
2018-Feb-20 06:00N 35°17' E 139°41'0 0.0
2018-Feb-20 05:29N 35°17' E 139°41'0 0.0
2018-Feb-20 05:00N 35°17' E 139°41'0 0.0
2018-Feb-20 04:30N 35°17' E 139°41'2 4.4
2018-Feb-20 03:59N 35°17' E 139°43'4 7.7
2018-Feb-20 03:29N 35°13' E 139°43'3 5.7
2018-Feb-20 02:58N 35°14' E 139°47'612.8
2018-Feb-20 02:30N 35°19' E 139°43'612.4
2018-Feb-20 02:00N 35°25' E 139°44'713.0
2018-Feb-20 01:30N 35°29' E 139°51'4 7.8
2018-Feb-20 01:00N 35°31' E 139°55'1 1.3
2018-Feb-20 00:30N 35°30' E 139°55'4 7.7
2018-Feb-20 00:00N 35°28' E 139°51'3 5.3
2018-Feb-19 23:30N 35°26' E 139°49'3 6.8
2018-Feb-19 23:00N 35°23' E 139°47'4 7.7
2018-Feb-19 22:30N 35°20' E 139°44'611.6
2018-Feb-19 22:00N 35°14' E 139°47'4 8.2
2018-Feb-19 21:30N 35°10' E 139°47'4 9.0
2018-Feb-19 21:00N 35°14' E 139°46'5 9.5
2018-Feb-19 20:30N 35°17' E 139°41'0 0.8
2018-Feb-19 20:00N 35°17' E 139°41'0 0.0
2018-Feb-19 19:30N 35°17' E 139°41'0 0.0
2018-Feb-19 19:00N 35°17' E 139°41'0 0.0
2018-Feb-19 18:30N 35°17' E 139°41'0 0.0
2018-Feb-19 18:01N 35°17' E 139°41'0 0.1
2018-Feb-19 17:31N 35°17' E 139°41'0 0.1
2018-Feb-19 16:59N 35°17' E 139°41'0 0.0
2018-Feb-19 16:30N 35°17' E 139°41'0 0.0
2018-Feb-19 16:00N 35°17' E 139°41'0 0.0
2018-Feb-19 15:30N 35°17' E 139°41'0 0.0
2018-Feb-19 15:00N 35°17' E 139°41'0 0.1
2018-Feb-19 14:30N 35°17' E 139°41'0 0.0
2018-Feb-19 14:01N 35°17' E 139°41'0 0.1
2018-Feb-19 13:30N 35°17' E 139°41'0 0.0
2018-Feb-19 13:00N 35°17' E 139°41'0 0.1
2018-Feb-19 12:30N 35°17' E 139°41'0 0.1
2018-Feb-19 12:00N 35°17' E 139°41'0 0.0
2018-Feb-19 11:30N 35°17' E 139°41'0 0.0
2018-Feb-19 11:00N 35°17' E 139°41'0 0.0
2018-Feb-19 10:30N 35°17' E 139°41'0 0.1
2018-Feb-19 10:00N 35°17' E 139°41'0 0.1
2018-Feb-19 09:30N 35°17' E 139°41'0 0.0
2018-Feb-19 09:00N 35°17' E 139°41'0 0.0
2018-Feb-19 08:30N 35°17' E 139°41'0 0.0
2018-Feb-19 08:00N 35°17' E 139°41'0 0.0
2018-Feb-19 07:30N 35°17' E 139°41'0 0.0
2018-Feb-19 07:00N 35°17' E 139°41'0 0.0
2018-Feb-19 06:30N 35°17' E 139°41'0 0.0
2018-Feb-19 06:00N 35°17' E 139°41'0 0.5
2018-Feb-19 05:30N 35°17' E 139°41'610.7
2018-Feb-19 04:59N 35°13' E 139°46'2 5.0
2018-Feb-19 04:30N 35°16' E 139°46'611.4
2018-Feb-19 04:00N 35°21' E 139°42'510.0
2018-Feb-19 03:31N 35°25' E 139°45'4 7.0
2018-Feb-19 03:00N 35°23' E 139°48'2 4.1
2018-Feb-19 02:30N 35°21' E 139°49'0 0.2
2018-Feb-19 02:01N 35°21' E 139°49'3 5.1
2018-Feb-19 01:30N 35°21' E 139°46'611.2
2018-Feb-19 01:00N 35°17' E 139°41'0 0.8
2018-Feb-19 00:30N 35°17' E 139°41'0 0.0
2018-Feb-19 00:00N 35°17' E 139°41'0 0.0
2018-Feb-18 23:30N 35°17' E 139°41'0 0.0
2018-Feb-18 23:00N 35°17' E 139°41'0 0.0
2018-Feb-18 22:30N 35°17' E 139°41'0 0.0
2018-Feb-18 22:00N 35°17' E 139°41'0 0.0
2018-Feb-18 21:30N 35°17' E 139°41'0 0.0
2018-Feb-18 21:00N 35°17' E 139°41'0 0.0
2018-Feb-18 20:31N 35°17' E 139°41'0 0.0
2018-Feb-18 20:00N 35°17' E 139°41'0 0.0
2018-Feb-18 19:31N 35°17' E 139°41'0 0.0
2018-Feb-18 19:00N 35°17' E 139°41'0 0.0
2018-Feb-18 18:30N 35°17' E 139°41'0 0.0
2018-Feb-18 18:00N 35°17' E 139°41'0 0.0
2018-Feb-18 17:30N 35°17' E 139°41'0 0.0
2018-Feb-18 17:00N 35°17' E 139°41'0 0.0
2018-Feb-18 16:30N 35°17' E 139°41'0 0.0
2018-Feb-18 16:00N 35°17' E 139°41'0 0.0
2018-Feb-18 15:30N 35°17' E 139°41'0 0.0
2018-Feb-18 15:00N 35°17' E 139°41'0 0.0
2018-Feb-18 14:30N 35°17' E 139°41'0 0.0
2018-Feb-18 14:01N 35°17' E 139°41'0 0.0
2018-Feb-18 13:30N 35°17' E 139°41'0 0.0
2018-Feb-18 13:00N 35°17' E 139°41'0 0.0
2018-Feb-18 12:30N 35°17' E 139°41'0 0.0
2018-Feb-18 12:00N 35°17' E 139°41'0 0.0
2018-Feb-18 11:30N 35°17' E 139°41'0 0.0
2018-Feb-18 11:00N 35°17' E 139°41'0 0.0
2018-Feb-18 10:30N 35°17' E 139°41'0 0.0
2018-Feb-18 10:00N 35°17' E 139°41'0 0.0
2018-Feb-18 09:30N 35°17' E 139°41'0 0.0
2018-Feb-18 09:00N 35°17' E 139°41'0 0.0
2018-Feb-18 08:30N 35°17' E 139°41'0 0.0
2018-Feb-18 08:00N 35°17' E 139°41'0 0.0
2018-Feb-18 07:30N 35°17' E 139°41'0 0.0
2018-Feb-18 07:00N 35°17' E 139°41'0 0.0
2018-Feb-18 06:30N 35°17' E 139°41'0 0.0
2018-Feb-18 06:00N 35°17' E 139°41'0 0.0
2018-Feb-18 05:30N 35°17' E 139°41'0 0.0
2018-Feb-18 05:00N 35°17' E 139°41'0 0.0
2018-Feb-18 04:30N 35°17' E 139°41'0 0.0
2018-Feb-18 04:00N 35°17' E 139°41'0 0.0
2018-Feb-18 03:31N 35°17' E 139°41'0 0.0
2018-Feb-18 03:00N 35°17' E 139°41'0 0.0
2018-Feb-18 02:30N 35°17' E 139°41'0 0.0
2018-Feb-18 02:00N 35°17' E 139°41'0 0.0
2018-Feb-18 01:31N 35°17' E 139°41'0 0.0
2018-Feb-18 01:00N 35°17' E 139°41'0 0.0
2018-Feb-18 00:30N 35°17' E 139°41'0 0.0
2018-Feb-18 00:00N 35°17' E 139°41'0 0.0
2018-Feb-17 23:30N 35°17' E 139°41'0 0.0
2018-Feb-17 23:00N 35°17' E 139°41'1 2.6
2018-Feb-17 22:29N 35°18' E 139°42'511.1
2018-Feb-17 22:00N 35°23' E 139°44'1 2.8
2018-Feb-17 21:30N 35°22' E 139°45'611.1
2018-Feb-17 21:00N 35°17' E 139°46'612.4
2018-Feb-17 20:31N 35°10' E 139°47'1 1.6
2018-Feb-17 20:00N 35°10' E 139°46'4 8.3
2018-Feb-17 19:30N 35°13' E 139°43'0 0.0
2018-Feb-17 19:00N 35°13' E 139°43'0 0.0
2018-Feb-17 18:29N 35°13' E 139°43'0 0.0
2018-Feb-17 18:00N 35°13' E 139°43'0 0.0
2018-Feb-17 17:30N 35°13' E 139°43'0 0.5
2018-Feb-17 17:01N 35°13' E 139°43'2 4.9
2018-Feb-17 16:30N 35°14' E 139°46'612.3
2018-Feb-17 16:00N 35°19' E 139°43'4 8.9
2018-Feb-17 15:31N 35°23' E 139°41'1 1.1
2018-Feb-17 15:01N 35°23' E 139°40'0 0.1
2018-Feb-17 14:31N 35°23' E 139°40'0 0.0
2018-Feb-17 14:01N 35°23' E 139°40'5 9.6
2018-Feb-17 13:30N 35°18' E 139°43'612.6
2018-Feb-17 13:00N 35°13' E 139°46'510.8
2018-Feb-17 12:30N 35°18' E 139°44'713.5
2018-Feb-17 12:00N 35°25' E 139°43'1 1.9
2018-Feb-17 11:30N 35°24' E 139°44'0 0.0
2018-Feb-17 11:00N 35°24' E 139°44'0 0.0
2018-Feb-17 10:31N 35°24' E 139°44'0 0.0
2018-Feb-17 10:00N 35°24' E 139°44'1 1.2
2018-Feb-17 09:30N 35°24' E 139°44'3 5.6
2018-Feb-17 09:00N 35°21' E 139°43'611.9
2018-Feb-17 08:30N 35°16' E 139°47'611.3
2018-Feb-17 08:00N 35°10' E 139°47'4 7.6
2018-Feb-17 07:29N 35°14' E 139°46'510.4
2018-Feb-17 07:00N 35°18' E 139°42'1 2.3
2018-Feb-17 06:30N 35°17' E 139°41'0 0.0
2018-Feb-17 06:00N 35°17' E 139°41'0 0.0
2018-Feb-17 05:30N 35°17' E 139°41'0 0.0
2018-Feb-17 05:00N 35°17' E 139°41'0 0.0
2018-Feb-17 04:30N 35°17' E 139°41'0 0.0
2018-Feb-17 03:59N 35°17' E 139°41'0 0.0
2018-Feb-17 03:30N 35°17' E 139°41'0 0.0
2018-Feb-17 03:00N 35°17' E 139°41'0 0.0
2018-Feb-17 02:30N 35°17' E 139°41'0 0.0
2018-Feb-17 02:00N 35°17' E 139°41'0 0.0
2018-Feb-17 01:30N 35°17' E 139°41'0 0.0
2018-Feb-17 01:00N 35°17' E 139°41'0 0.0
2018-Feb-17 00:30N 35°17' E 139°41'0 0.0
2018-Feb-17 00:00N 35°17' E 139°41'0 0.0
2018-Feb-16 23:30N 35°17' E 139°41'0 0.0
2018-Feb-16 23:00N 35°17' E 139°41'0 0.0
2018-Feb-16 22:30N 35°17' E 139°41'0 0.0
2018-Feb-16 22:00N 35°17' E 139°41'0 0.0
2018-Feb-16 21:30N 35°17' E 139°41'0 0.0
2018-Feb-16 21:00N 35°17' E 139°41'0 0.0
2018-Feb-16 20:30N 35°17' E 139°41'0 0.0
2018-Feb-16 20:00N 35°17' E 139°41'0 0.0
2018-Feb-16 19:30N 35°17' E 139°41'0 0.0
2018-Feb-16 19:00N 35°17' E 139°41'0 0.0
2018-Feb-16 18:30N 35°17' E 139°41'0 0.0
2018-Feb-16 18:00N 35°17' E 139°41'0 0.0
2018-Feb-16 17:30N 35°17' E 139°41'0 0.0
2018-Feb-16 17:00N 35°17' E 139°41'0 0.0
2018-Feb-16 16:30N 35°17' E 139°41'0 0.0
2018-Feb-16 16:00N 35°17' E 139°41'0 0.0
2018-Feb-16 15:30N 35°17' E 139°41'0 0.0
2018-Feb-16 15:00N 35°17' E 139°41'0 0.0
2018-Feb-16 14:30N 35°17' E 139°41'0 0.0
2018-Feb-16 14:00N 35°17' E 139°41'0 0.0
2018-Feb-16 13:30N 35°17' E 139°41'0 0.0
2018-Feb-16 13:00N 35°17' E 139°41'0 0.0
2018-Feb-16 12:30N 35°17' E 139°41'0 0.0
2018-Feb-16 12:00N 35°17' E 139°41'0 0.0
2018-Feb-16 11:30N 35°17' E 139°41'0 0.0
2018-Feb-16 11:00N 35°17' E 139°41'0 0.0
2018-Feb-16 10:30N 35°17' E 139°41'0 0.0
2018-Feb-16 10:00N 35°17' E 139°41'0 0.0
2018-Feb-16 09:30N 35°17' E 139°41'0 0.0
2018-Feb-16 09:00N 35°17' E 139°41'0 0.0
2018-Feb-16 08:30N 35°17' E 139°41'0 0.0
2018-Feb-16 08:00N 35°17' E 139°41'0 0.0
2018-Feb-16 07:30N 35°17' E 139°41'0 0.0
2018-Feb-16 07:00N 35°17' E 139°41'0 0.0
2018-Feb-16 06:29N 35°17' E 139°41'0 0.0
2018-Feb-16 06:00N 35°17' E 139°41'0 0.0
2018-Feb-16 05:30N 35°17' E 139°41'0 0.0
2018-Feb-16 05:00N 35°17' E 139°41'0 0.0
2018-Feb-16 04:30N 35°17' E 139°41'0 0.0
2018-Feb-16 04:00N 35°17' E 139°41'0 0.0
2018-Feb-16 03:30N 35°17' E 139°41'0 0.0
2018-Feb-16 03:00N 35°17' E 139°41'0 0.0
2018-Feb-16 02:30N 35°17' E 139°41'0 0.0
2018-Feb-16 01:59N 35°17' E 139°41'0 0.0
2018-Feb-16 01:30N 35°17' E 139°41'2 3.4
2018-Feb-16 01:00N 35°19' E 139°42'510.9
2018-Feb-16 00:30N 35°23' E 139°38'0 0.2
2018-Feb-16 00:00N 35°23' E 139°38'0 0.2
2018-Feb-15 23:30N 35°23' E 139°38'0 0.7
2018-Feb-15 23:00N 35°24' E 139°38'0 0.5
2018-Feb-15 22:30N 35°24' E 139°38'0 0.4
2018-Feb-15 22:00N 35°24' E 139°38'1 1.6
2018-Feb-15 21:30N 35°24' E 139°39'0 0.3
2018-Feb-15 21:00N 35°23' E 139°39'0 0.0
2018-Feb-15 20:30N 35°23' E 139°39'0 0.0
2018-Feb-15 20:00N 35°23' E 139°39'0 0.0
2018-Feb-15 19:30N 35°23' E 139°39'0 0.0
2018-Feb-15 19:00N 35°23' E 139°39'3 6.8
2018-Feb-15 18:30N 35°20' E 139°42'714.0
2018-Feb-15 18:01N 35°14' E 139°45'2 3.6
2018-Feb-15 17:31N 35°16' E 139°46'611.7
2018-Feb-15 17:01N 35°21' E 139°42'2 4.9
2018-Feb-15 16:31N 35°23' E 139°40'1 3.0
2018-Feb-15 16:01N 35°22' E 139°41'5 9.1
2018-Feb-15 15:30N 35°17' E 139°41'0 0.8
2018-Feb-15 15:01N 35°17' E 139°41'0 0.0
2018-Feb-15 14:31N 35°17' E 139°41'0 0.0
2018-Feb-15 14:01N 35°17' E 139°41'0 0.0
2018-Feb-15 13:30N 35°17' E 139°41'0 0.0
2018-Feb-15 13:01N 35°17' E 139°41'0 0.0
2018-Feb-15 12:30N 35°17' E 139°41'0 0.0
2018-Feb-15 12:00N 35°17' E 139°41'0 0.0
2018-Feb-15 11:30N 35°17' E 139°41'0 0.0
2018-Feb-15 11:00N 35°17' E 139°41'0 0.0
2018-Feb-15 10:30N 35°17' E 139°41'0 0.8
2018-Feb-15 10:00N 35°17' E 139°41'611.4
2018-Feb-15 09:30N 35°23' E 139°42'510.7
2018-Feb-15 09:01N 35°28' E 139°42'0 0.3
2018-Feb-15 08:31N 35°28' E 139°43'510.0
2018-Feb-15 08:01N 35°24' E 139°46'611.6
2018-Feb-15 07:30N 35°18' E 139°44'612.2
2018-Feb-15 07:00N 35°12' E 139°47'1 2.6
2018-Feb-15 06:30N 35°11' E 139°46'4 6.1
2018-Feb-15 05:56N 35°13' E 139°43'0 0.0
2018-Feb-15 05:29N 35°13' E 139°43'0 0.0
2018-Feb-15 05:00N 35°13' E 139°43'0 0.0
2018-Feb-15 04:28N 35°13' E 139°43'0 0.0
2018-Feb-15 03:55N 35°13' E 139°43'0 0.2
2018-Feb-15 03:08N 35°13' E 139°43'0 2.5
2018-Feb-15 03:00N 35°13' E 139°43'2 5.0
2018-Feb-15 02:30N 35°14' E 139°46'612.2
2018-Feb-15 02:00N 35°19' E 139°43'5 9.0
2018-Feb-15 01:30N 35°23' E 139°40'1 2.2
2018-Feb-15 01:00N 35°24' E 139°39'0 0.3
2018-Feb-15 00:31N 35°24' E 139°39'1 3.0
2018-Feb-15 00:00N 35°23' E 139°40'510.6
2018-Feb-14 23:30N 35°17' E 139°41'1 1.5
2018-Feb-14 23:00N 35°17' E 139°41'0 0.0
2018-Feb-14 22:30N 35°17' E 139°41'0 0.0
2018-Feb-14 21:58N 35°17' E 139°41'0 0.0
2018-Feb-14 21:30N 35°17' E 139°41'0 0.0
2018-Feb-14 21:00N 35°17' E 139°41'0 0.0
2018-Feb-14 20:30N 35°17' E 139°41'0 0.0
2018-Feb-14 19:59N 35°17' E 139°41'0 0.0
2018-Feb-14 19:30N 35°17' E 139°41'0 0.0
2018-Feb-14 19:00N 35°17' E 139°41'0 0.0
2018-Feb-14 18:30N 35°17' E 139°41'0 0.0
2018-Feb-14 18:00N 35°17' E 139°41'0 0.0
2018-Feb-14 17:30N 35°17' E 139°41'0 0.0
2018-Feb-14 17:00N 35°17' E 139°41'0 0.0
2018-Feb-14 16:30N 35°17' E 139°41'0 0.0
2018-Feb-14 15:59N 35°17' E 139°41'0 0.0
2018-Feb-14 15:27N 35°17' E 139°41'0 0.0
2018-Feb-14 15:00N 35°17' E 139°41'0 0.0
2018-Feb-14 14:30N 35°17' E 139°41'0 0.0
2018-Feb-14 14:00N 35°17' E 139°41'0 0.0
2018-Feb-14 13:30N 35°17' E 139°41'0 0.0
2018-Feb-14 13:00N 35°17' E 139°41'0 0.0
2018-Feb-14 12:30N 35°17' E 139°41'0 0.0
2018-Feb-14 12:00N 35°17' E 139°41'0 0.0
2018-Feb-14 11:29N 35°17' E 139°41'0 0.0
2018-Feb-14 11:00N 35°17' E 139°41'0 0.0
2018-Feb-14 10:30N 35°17' E 139°41'0 0.0
2018-Feb-14 10:00N 35°17' E 139°41'  
Track history (hours):
 
Tides and Currents Weather Stations Pressure Air Temp Water Temp Dewpoint Dewpoint Depression Visibility Wind Speed Wind Dir Waves Ship Positions

Shinano Maru

Last reported at 2018-Feb-24 09:59 UTC. Time now 2018-Feb-24 10:09 UTC.
Position N 35°17' E 139°41'.

Length 38 m; draft 3 m.

Type: Tug. MMSI: 431000795.

Date/timePositionNaut miles runAvg speedWind from/ knotsBaromVisibWave heightAir tempDewpointWater temp
2018-Feb-24 09:59N 35°17' E 139°41'0 0.0
2018-Feb-24 09:30N 35°17' E 139°41'0 0.0
2018-Feb-24 09:00N 35°17' E 139°41'0 0.0
2018-Feb-24 08:30N 35°17' E 139°41'0 0.0
2018-Feb-24 08:00N 35°17' E 139°41'0 0.0
2018-Feb-24 07:30N 35°17' E 139°41'0 0.0
2018-Feb-24 07:00N 35°17' E 139°41'0 0.0
2018-Feb-24 06:30N 35°17' E 139°41'0 0.0
2018-Feb-24 06:00N 35°17' E 139°41'0 0.0
2018-Feb-24 05:30N 35°17' E 139°41'0 0.0
2018-Feb-24 05:00N 35°17' E 139°41'0 0.0
2018-Feb-24 04:30N 35°17' E 139°41'4 8.6
2018-Feb-24 04:00N 35°21' E 139°42'611.3
2018-Feb-24 03:30N 35°25' E 139°47'611.4
2018-Feb-24 03:00N 35°30' E 139°51'610.5
2018-Feb-24 02:24N 35°34' E 139°58'1 2.5
2018-Feb-24 01:53N 35°33' E 139°56'4 9.6
2018-Feb-24 01:30N 35°30' E 139°53'510.9
2018-Feb-24 01:01N 35°27' E 139°48'3 6.2
2018-Feb-24 00:30N 35°28' E 139°44'4 4.4
2018-Feb-23 23:30N 35°24' E 139°42'611.4
2018-Feb-23 23:00N 35°18' E 139°42'1 2.3
2018-Feb-23 22:30N 35°17' E 139°41'0 0.0
2018-Feb-23 22:00N 35°17' E 139°41'0 0.0
2018-Feb-23 21:30N 35°17' E 139°41'0 0.0
2018-Feb-23 21:00N 35°17' E 139°41'0 0.0
2018-Feb-23 20:30N 35°17' E 139°41'0 0.0
2018-Feb-23 19:59N 35°17' E 139°41'0 0.0
2018-Feb-23 19:30N 35°17' E 139°41'0 0.0
2018-Feb-23 19:00N 35°17' E 139°41'0 0.0
2018-Feb-23 18:30N 35°17' E 139°41'0 0.0
2018-Feb-23 18:00N 35°17' E 139°41'0 0.0
2018-Feb-23 17:30N 35°17' E 139°41'0 0.0
2018-Feb-23 17:00N 35°17' E 139°41'0 0.0
2018-Feb-23 16:30N 35°17' E 139°41'0 0.0
2018-Feb-23 16:00N 35°17' E 139°41'0 0.0
2018-Feb-23 15:30N 35°17' E 139°41'0 0.0
2018-Feb-23 15:00N 35°17' E 139°41'0 0.0
2018-Feb-23 14:30N 35°17' E 139°41'0 0.0
2018-Feb-23 13:59N 35°17' E 139°41'0 0.0
2018-Feb-23 13:30N 35°17' E 139°41'0 0.0
2018-Feb-23 13:00N 35°17' E 139°41'0 0.0
2018-Feb-23 12:30N 35°17' E 139°41'0 0.0
2018-Feb-23 12:00N 35°17' E 139°41'0 0.0
2018-Feb-23 11:30N 35°17' E 139°41'0 0.0
2018-Feb-23 11:00N 35°17' E 139°41'0 0.0
2018-Feb-23 10:30N 35°17' E 139°41'0 0.0
2018-Feb-23 10:00N 35°17' E 139°41'0 0.0
2018-Feb-23 09:30N 35°17' E 139°41'0 0.0
2018-Feb-23 09:00N 35°17' E 139°41'0 0.0
2018-Feb-23 08:30N 35°17' E 139°41'0 0.0
2018-Feb-23 08:00N 35°17' E 139°41'0 0.0
2018-Feb-23 07:30N 35°17' E 139°41'0 0.0
2018-Feb-23 07:00N 35°17' E 139°41'0 0.0
2018-Feb-23 06:29N 35°17' E 139°41'2 4.4
2018-Feb-23 06:00N 35°19' E 139°40'0 0.1
2018-Feb-23 05:30N 35°19' E 139°40'0 0.0
2018-Feb-23 05:01N 35°19' E 139°40'0 0.0
2018-Feb-23 04:31N 35°19' E 139°40'0 0.0
2018-Feb-23 04:01N 35°19' E 139°40'0 0.0
2018-Feb-23 03:31N 35°19' E 139°40'0 0.1
2018-Feb-23 03:01N 35°19' E 139°40'0 0.0
2018-Feb-23 02:30N 35°19' E 139°40'0 0.0
2018-Feb-23 02:00N 35°19' E 139°40'1 2.2
2018-Feb-23 01:31N 35°20' E 139°41'2 3.3
2018-Feb-23 01:01N 35°21' E 139°42'611.9
2018-Feb-23 00:30N 35°16' E 139°46'511.0
2018-Feb-23 00:00N 35°11' E 139°47'1 1.3
2018-Feb-22 23:30N 35°10' E 139°47'1 1.2
2018-Feb-22 23:00N 35°11' E 139°47'4 7.4
2018-Feb-22 22:30N 35°14' E 139°46'612.5
2018-Feb-22 22:00N 35°20' E 139°43'5 9.3
2018-Feb-22 21:31N 35°24' E 139°44'4 7.3
2018-Feb-22 21:01N 35°21' E 139°42'4 6.8
2018-Feb-22 20:26N 35°17' E 139°41'0 0.0
2018-Feb-22 20:00N 35°17' E 139°41'0 0.0
2018-Feb-22 19:30N 35°17' E 139°41'0 0.0
2018-Feb-22 19:00N 35°17' E 139°41'0 0.0
2018-Feb-22 18:30N 35°17' E 139°41'0 0.0
2018-Feb-22 18:00N 35°17' E 139°41'0 0.0
2018-Feb-22 17:30N 35°17' E 139°41'0 0.0
2018-Feb-22 17:00N 35°17' E 139°41'0 0.0
2018-Feb-22 16:30N 35°17' E 139°41'0 0.0
2018-Feb-22 16:00N 35°17' E 139°41'0 0.0
2018-Feb-22 15:30N 35°17' E 139°41'0 0.0
2018-Feb-22 15:00N 35°17' E 139°41'0 0.0
2018-Feb-22 14:30N 35°17' E 139°41'0 0.0
2018-Feb-22 14:00N 35°17' E 139°41'0 0.0
2018-Feb-22 13:30N 35°17' E 139°41'0 0.0
2018-Feb-22 13:00N 35°17' E 139°41'0 0.0
2018-Feb-22 12:30N 35°17' E 139°41'0 0.0
2018-Feb-22 12:00N 35°17' E 139°41'0 0.0
2018-Feb-22 11:29N 35°17' E 139°41'0 0.0
2018-Feb-22 11:00N 35°17' E 139°41'0 0.0
2018-Feb-22 10:30N 35°17' E 139°41'0 0.0
2018-Feb-22 10:00N 35°17' E 139°41'0 0.0
2018-Feb-22 09:30N 35°17' E 139°41'0 0.0
2018-Feb-22 09:00N 35°17' E 139°41'0 0.0
2018-Feb-22 08:30N 35°17' E 139°41'0 0.0
2018-Feb-22 08:00N 35°17' E 139°41'0 0.0
2018-Feb-22 07:30N 35°17' E 139°41'0 0.0
2018-Feb-22 07:00N 35°17' E 139°41'0 0.0
2018-Feb-22 06:30N 35°17' E 139°41'0 0.0
2018-Feb-22 06:00N 35°17' E 139°41'0 0.0
2018-Feb-22 05:30N 35°17' E 139°41'0 0.0
2018-Feb-22 05:00N 35°17' E 139°41'0 0.0
2018-Feb-22 04:30N 35°17' E 139°41'0 0.1
2018-Feb-22 04:00N 35°17' E 139°41'5 9.4
2018-Feb-22 03:30N 35°15' E 139°46'1 1.7
2018-Feb-22 02:59N 35°15' E 139°46'612.5
2018-Feb-22 02:30N 35°20' E 139°42'612.2
2018-Feb-22 02:01N 35°26' E 139°45'910.7
2018-Feb-22 01:08N 35°31' E 139°55'0 1.7
2018-Feb-22 00:59N 35°30' E 139°56'1 1.0
2018-Feb-22 00:30N 35°31' E 139°56'4 7.9
2018-Feb-22 00:00N 35°28' E 139°52'611.2
2018-Feb-21 23:30N 35°24' E 139°48'611.2
2018-Feb-21 23:00N 35°19' E 139°44'4 7.2
2018-Feb-21 22:29N 35°17' E 139°41'0 0.0
2018-Feb-21 22:00N 35°17' E 139°41'0 0.0
2018-Feb-21 21:31N 35°17' E 139°41'0 0.0
2018-Feb-21 21:00N 35°17' E 139°41'0 0.0
2018-Feb-21 20:30N 35°17' E 139°41'0 0.0
2018-Feb-21 20:00N 35°17' E 139°41'0 0.0
2018-Feb-21 19:30N 35°17' E 139°41'0 0.0
2018-Feb-21 19:01N 35°17' E 139°41'0 0.0
2018-Feb-21 18:30N 35°17' E 139°41'0 0.0
2018-Feb-21 18:00N 35°17' E 139°41'0 0.0
2018-Feb-21 17:31N 35°17' E 139°41'0 0.0
2018-Feb-21 17:00N 35°17' E 139°41'0 0.0
2018-Feb-21 16:30N 35°17' E 139°41'0 0.0
2018-Feb-21 16:00N 35°17' E 139°41'0 0.0
2018-Feb-21 15:30N 35°17' E 139°41'0 0.0
2018-Feb-21 15:00N 35°17' E 139°41'0 0.0
2018-Feb-21 14:30N 35°17' E 139°41'0 0.0
2018-Feb-21 14:01N 35°17' E 139°41'0 0.0
2018-Feb-21 13:31N 35°17' E 139°41'0 0.0
2018-Feb-21 13:00N 35°17' E 139°41'0 0.0
2018-Feb-21 12:30N 35°17' E 139°41'0 0.0
2018-Feb-21 12:00N 35°17' E 139°41'0 0.0
2018-Feb-21 11:30N 35°17' E 139°41'0 0.0
2018-Feb-21 11:00N 35°17' E 139°41'0 0.0
2018-Feb-21 10:30N 35°17' E 139°41'0 0.0
2018-Feb-21 10:00N 35°17' E 139°41'0 0.0
2018-Feb-21 09:29N 35°17' E 139°41'0 0.0
2018-Feb-21 09:00N 35°17' E 139°41'0 0.0
2018-Feb-21 08:30N 35°17' E 139°41'0 0.0
2018-Feb-21 08:00N 35°17' E 139°41'0 0.0
2018-Feb-21 07:30N 35°17' E 139°41'0 0.0
2018-Feb-21 07:00N 35°17' E 139°41'2 3.7
2018-Feb-21 06:30N 35°17' E 139°43'611.8
2018-Feb-21 06:00N 35°12' E 139°46'611.6
2018-Feb-21 05:30N 35°18' E 139°44'612.4
2018-Feb-21 05:00N 35°24' E 139°43'4 8.8
2018-Feb-21 04:30N 35°23' E 139°48'2 4.1
2018-Feb-21 04:01N 35°21' E 139°49'0 0.2
2018-Feb-21 03:29N 35°21' E 139°49'2 4.1
2018-Feb-21 03:00N 35°22' E 139°47'2 4.8
2018-Feb-21 02:30N 35°20' E 139°45'3 6.7
2018-Feb-21 02:00N 35°17' E 139°44'510.7
2018-Feb-21 01:30N 35°12' E 139°46'510.7
2018-Feb-21 01:00N 35°17' E 139°45'612.2
2018-Feb-21 00:31N 35°23' E 139°42'713.9
2018-Feb-21 00:00N 35°27' E 139°49'710.6
2018-Feb-20 23:22N 35°31' E 139°56'0 0.5
2018-Feb-20 23:00N 35°31' E 139°56'1 1.1
2018-Feb-20 22:29N 35°30' E 139°55'3 7.2
2018-Feb-20 22:00N 35°28' E 139°52'611.3
2018-Feb-20 21:30N 35°24' E 139°47'510.7
2018-Feb-20 21:00N 35°21' E 139°43'4 7.6
2018-Feb-20 20:30N 35°17' E 139°41'0 0.0
2018-Feb-20 20:00N 35°17' E 139°41'0 0.1
2018-Feb-20 19:30N 35°17' E 139°41'0 0.1
2018-Feb-20 19:00N 35°17' E 139°41'0 0.0
2018-Feb-20 18:30N 35°17' E 139°41'0 0.0
2018-Feb-20 18:00N 35°17' E 139°41'0 0.1
2018-Feb-20 17:30N 35°17' E 139°41'0 0.1
2018-Feb-20 17:00N 35°17' E 139°41'0 0.0
2018-Feb-20 16:30N 35°17' E 139°41'0 0.0
2018-Feb-20 16:00N 35°17' E 139°41'0 0.1
2018-Feb-20 15:30N 35°17' E 139°41'0 0.1
2018-Feb-20 15:00N 35°17' E 139°41'0 0.1
2018-Feb-20 14:30N 35°17' E 139°41'0 0.0
2018-Feb-20 14:00N 35°17' E 139°41'0 0.1
2018-Feb-20 13:30N 35°17' E 139°41'0 0.0
2018-Feb-20 13:00N 35°17' E 139°41'0 0.0
2018-Feb-20 12:30N 35°17' E 139°41'0 0.0
2018-Feb-20 12:00N 35°17' E 139°41'0 0.0
2018-Feb-20 11:30N 35°17' E 139°41'0 0.0
2018-Feb-20 11:00N 35°17' E 139°41'0 0.0
2018-Feb-20 10:30N 35°17' E 139°41'0 0.0
2018-Feb-20 09:59N 35°17' E 139°41'0 0.0
2018-Feb-20 09:30N 35°17' E 139°41'0 0.0
2018-Feb-20 09:00N 35°17' E 139°41'0 0.0
2018-Feb-20 08:30N 35°17' E 139°41'0 0.0
2018-Feb-20 08:00N 35°17' E 139°41'0 0.0
2018-Feb-20 07:30N 35°17' E 139°41'0 0.1
2018-Feb-20 07:00N 35°17' E 139°41'0 0.1
2018-Feb-20 06:29N 35°17' E 139°41'0 0.0
2018-Feb-20 06:00N 35°17' E 139°41'0 0.0
2018-Feb-20 05:29N 35°17' E 139°41'0 0.0
2018-Feb-20 05:00N 35°17' E 139°41'0 0.0
2018-Feb-20 04:30N 35°17' E 139°41'2 4.4
2018-Feb-20 03:59N 35°17' E 139°43'4 7.7
2018-Feb-20 03:29N 35°13' E 139°43'3 5.7
2018-Feb-20 02:58N 35°14' E 139°47'612.8
2018-Feb-20 02:30N 35°19' E 139°43'612.4
2018-Feb-20 02:00N 35°25' E 139°44'713.0
2018-Feb-20 01:30N 35°29' E 139°51'4 7.8
2018-Feb-20 01:00N 35°31' E 139°55'1 1.3
2018-Feb-20 00:30N 35°30' E 139°55'4 7.7
2018-Feb-20 00:00N 35°28' E 139°51'3 5.3
2018-Feb-19 23:30N 35°26' E 139°49'3 6.8
2018-Feb-19 23:00N 35°23' E 139°47'4 7.7
2018-Feb-19 22:30N 35°20' E 139°44'611.6
2018-Feb-19 22:00N 35°14' E 139°47'4 8.2
2018-Feb-19 21:30N 35°10' E 139°47'4 9.0
2018-Feb-19 21:00N 35°14' E 139°46'5 9.5
2018-Feb-19 20:30N 35°17' E 139°41'0 0.8
2018-Feb-19 20:00N 35°17' E 139°41'0 0.0
2018-Feb-19 19:30N 35°17' E 139°41'0 0.0
2018-Feb-19 19:00N 35°17' E 139°41'0 0.0
2018-Feb-19 18:30N 35°17' E 139°41'0 0.0
2018-Feb-19 18:01N 35°17' E 139°41'0 0.1
2018-Feb-19 17:31N 35°17' E 139°41'0 0.1
2018-Feb-19 16:59N 35°17' E 139°41'0 0.0
2018-Feb-19 16:30N 35°17' E 139°41'0 0.0
2018-Feb-19 16:00N 35°17' E 139°41'0 0.0
2018-Feb-19 15:30N 35°17' E 139°41'0 0.0
2018-Feb-19 15:00N 35°17' E 139°41'0 0.1
2018-Feb-19 14:30N 35°17' E 139°41'0 0.0
2018-Feb-19 14:01N 35°17' E 139°41'0 0.1
2018-Feb-19 13:30N 35°17' E 139°41'0 0.0
2018-Feb-19 13:00N 35°17' E 139°41'0 0.1
2018-Feb-19 12:30N 35°17' E 139°41'0 0.1
2018-Feb-19 12:00N 35°17' E 139°41'0 0.0
2018-Feb-19 11:30N 35°17' E 139°41'0 0.0
2018-Feb-19 11:00N 35°17' E 139°41'0 0.0
2018-Feb-19 10:30N 35°17' E 139°41'0 0.1
2018-Feb-19 10:00N 35°17' E 139°41'0 0.1
2018-Feb-19 09:30N 35°17' E 139°41'0 0.0
2018-Feb-19 09:00N 35°17' E 139°41'0 0.0
2018-Feb-19 08:30N 35°17' E 139°41'0 0.0
2018-Feb-19 08:00N 35°17' E 139°41'0 0.0
2018-Feb-19 07:30N 35°17' E 139°41'0 0.0
2018-Feb-19 07:00N 35°17' E 139°41'0 0.0
2018-Feb-19 06:30N 35°17' E 139°41'0 0.0
2018-Feb-19 06:00N 35°17' E 139°41'0 0.5
2018-Feb-19 05:30N 35°17' E 139°41'610.7
2018-Feb-19 04:59N 35°13' E 139°46'2 5.0
2018-Feb-19 04:30N 35°16' E 139°46'611.4
2018-Feb-19 04:00N 35°21' E 139°42'510.0
2018-Feb-19 03:31N 35°25' E 139°45'4 7.0
2018-Feb-19 03:00N 35°23' E 139°48'2 4.1
2018-Feb-19 02:30N 35°21' E 139°49'0 0.2
2018-Feb-19 02:01N 35°21' E 139°49'3 5.1
2018-Feb-19 01:30N 35°21' E 139°46'611.2
2018-Feb-19 01:00N 35°17' E 139°41'0 0.8
2018-Feb-19 00:30N 35°17' E 139°41'0 0.0
2018-Feb-19 00:00N 35°17' E 139°41'0 0.0
2018-Feb-18 23:30N 35°17' E 139°41'0 0.0
2018-Feb-18 23:00N 35°17' E 139°41'0 0.0
2018-Feb-18 22:30N 35°17' E 139°41'0 0.0
2018-Feb-18 22:00N 35°17' E 139°41'0 0.0
2018-Feb-18 21:30N 35°17' E 139°41'0 0.0
2018-Feb-18 21:00N 35°17' E 139°41'0 0.0
2018-Feb-18 20:31N 35°17' E 139°41'0 0.0
2018-Feb-18 20:00N 35°17' E 139°41'0 0.0
2018-Feb-18 19:31N 35°17' E 139°41'0 0.0
2018-Feb-18 19:00N 35°17' E 139°41'0 0.0
2018-Feb-18 18:30N 35°17' E 139°41'0 0.0
2018-Feb-18 18:00N 35°17' E 139°41'0 0.0
2018-Feb-18 17:30N 35°17' E 139°41'0 0.0
2018-Feb-18 17:00N 35°17' E 139°41'0 0.0
2018-Feb-18 16:30N 35°17' E 139°41'0 0.0
2018-Feb-18 16:00N 35°17' E 139°41'0 0.0
2018-Feb-18 15:30N 35°17' E 139°41'0 0.0
2018-Feb-18 15:00N 35°17' E 139°41'0 0.0
2018-Feb-18 14:30N 35°17' E 139°41'0 0.0
2018-Feb-18 14:01N 35°17' E 139°41'0 0.0
2018-Feb-18 13:30N 35°17' E 139°41'0 0.0
2018-Feb-18 13:00N 35°17' E 139°41'0 0.0
2018-Feb-18 12:30N 35°17' E 139°41'0 0.0
2018-Feb-18 12:00N 35°17' E 139°41'0 0.0
2018-Feb-18 11:30N 35°17' E 139°41'0 0.0
2018-Feb-18 11:00N 35°17' E 139°41'0 0.0
2018-Feb-18 10:30N 35°17' E 139°41'0 0.0
2018-Feb-18 10:00N 35°17' E 139°41'0 0.0
2018-Feb-18 09:30N 35°17' E 139°41'0 0.0
2018-Feb-18 09:00N 35°17' E 139°41'0 0.0
2018-Feb-18 08:30N 35°17' E 139°41'0 0.0
2018-Feb-18 08:00N 35°17' E 139°41'0 0.0
2018-Feb-18 07:30N 35°17' E 139°41'0 0.0
2018-Feb-18 07:00N 35°17' E 139°41'0 0.0
2018-Feb-18 06:30N 35°17' E 139°41'0 0.0
2018-Feb-18 06:00N 35°17' E 139°41'0 0.0
2018-Feb-18 05:30N 35°17' E 139°41'0 0.0
2018-Feb-18 05:00N 35°17' E 139°41'0 0.0
2018-Feb-18 04:30N 35°17' E 139°41'0 0.0
2018-Feb-18 04:00N 35°17' E 139°41'0 0.0
2018-Feb-18 03:31N 35°17' E 139°41'0 0.0
2018-Feb-18 03:00N 35°17' E 139°41'0 0.0
2018-Feb-18 02:30N 35°17' E 139°41'0 0.0
2018-Feb-18 02:00N 35°17' E 139°41'0 0.0
2018-Feb-18 01:31N 35°17' E 139°41'0 0.0
2018-Feb-18 01:00N 35°17' E 139°41'0 0.0
2018-Feb-18 00:30N 35°17' E 139°41'0 0.0
2018-Feb-18 00:00N 35°17' E 139°41'0 0.0
2018-Feb-17 23:30N 35°17' E 139°41'0 0.0
2018-Feb-17 23:00N 35°17' E 139°41'1 2.6
2018-Feb-17 22:29N 35°18' E 139°42'511.1
2018-Feb-17 22:00N 35°23' E 139°44'1 2.8
2018-Feb-17 21:30N 35°22' E 139°45'611.1
2018-Feb-17 21:00N 35°17' E 139°46'612.4
2018-Feb-17 20:31N 35°10' E 139°47'1 1.6
2018-Feb-17 20:00N 35°10' E 139°46'4 8.3
2018-Feb-17 19:30N 35°13' E 139°43'0 0.0
2018-Feb-17 19:00N 35°13' E 139°43'0 0.0
2018-Feb-17 18:29N 35°13' E 139°43'0 0.0
2018-Feb-17 18:00N 35°13' E 139°43'0 0.0
2018-Feb-17 17:30N 35°13' E 139°43'0 0.5
2018-Feb-17 17:01N 35°13' E 139°43'2 4.9
2018-Feb-17 16:30N 35°14' E 139°46'612.3
2018-Feb-17 16:00N 35°19' E 139°43'4 8.9
2018-Feb-17 15:31N 35°23' E 139°41'1 1.1
2018-Feb-17 15:01N 35°23' E 139°40'0 0.1
2018-Feb-17 14:31N 35°23' E 139°40'0 0.0
2018-Feb-17 14:01N 35°23' E 139°40'5 9.6
2018-Feb-17 13:30N 35°18' E 139°43'612.6
2018-Feb-17 13:00N 35°13' E 139°46'510.8
2018-Feb-17 12:30N 35°18' E 139°44'713.5
2018-Feb-17 12:00N 35°25' E 139°43'1 1.9
2018-Feb-17 11:30N 35°24' E 139°44'0 0.0
2018-Feb-17 11:00N 35°24' E 139°44'0 0.0
2018-Feb-17 10:31N 35°24' E 139°44'0 0.0
2018-Feb-17 10:00N 35°24' E 139°44'1 1.2
2018-Feb-17 09:30N 35°24' E 139°44'3 5.6
2018-Feb-17 09:00N 35°21' E 139°43'611.9
2018-Feb-17 08:30N 35°16' E 139°47'611.3
2018-Feb-17 08:00N 35°10' E 139°47'4 7.6
2018-Feb-17 07:29N 35°14' E 139°46'510.4
2018-Feb-17 07:00N 35°18' E 139°42'1 2.3
2018-Feb-17 06:30N 35°17' E 139°41'0 0.0
2018-Feb-17 06:00N 35°17' E 139°41'0 0.0
2018-Feb-17 05:30N 35°17' E 139°41'0 0.0
2018-Feb-17 05:00N 35°17' E 139°41'0 0.0
2018-Feb-17 04:30N 35°17' E 139°41'0 0.0
2018-Feb-17 03:59N 35°17' E 139°41'0 0.0
2018-Feb-17 03:30N 35°17' E 139°41'0 0.0
2018-Feb-17 03:00N 35°17' E 139°41'0 0.0
2018-Feb-17 02:30N 35°17' E 139°41'0 0.0
2018-Feb-17 02:00N 35°17' E 139°41'0 0.0
2018-Feb-17 01:30N 35°17' E 139°41'0 0.0
2018-Feb-17 01:00N 35°17' E 139°41'0 0.0
2018-Feb-17 00:30N 35°17' E 139°41'0 0.0
2018-Feb-17 00:00N 35°17' E 139°41'0 0.0
2018-Feb-16 23:30N 35°17' E 139°41'0 0.0
2018-Feb-16 23:00N 35°17' E 139°41'0 0.0
2018-Feb-16 22:30N 35°17' E 139°41'0 0.0
2018-Feb-16 22:00N 35°17' E 139°41'0 0.0
2018-Feb-16 21:30N 35°17' E 139°41'0 0.0
2018-Feb-16 21:00N 35°17' E 139°41'0 0.0
2018-Feb-16 20:30N 35°17' E 139°41'0 0.0
2018-Feb-16 20:00N 35°17' E 139°41'0 0.0
2018-Feb-16 19:30N 35°17' E 139°41'0 0.0
2018-Feb-16 19:00N 35°17' E 139°41'0 0.0
2018-Feb-16 18:30N 35°17' E 139°41'0 0.0
2018-Feb-16 18:00N 35°17' E 139°41'0 0.0
2018-Feb-16 17:30N 35°17' E 139°41'0 0.0
2018-Feb-16 17:00N 35°17' E 139°41'0 0.0
2018-Feb-16 16:30N 35°17' E 139°41'0 0.0
2018-Feb-16 16:00N 35°17' E 139°41'0 0.0
2018-Feb-16 15:30N 35°17' E 139°41'0 0.0
2018-Feb-16 15:00N 35°17' E 139°41'0 0.0
2018-Feb-16 14:30N 35°17' E 139°41'0 0.0
2018-Feb-16 14:00N 35°17' E 139°41'0 0.0
2018-Feb-16 13:30N 35°17' E 139°41'0 0.0
2018-Feb-16 13:00N 35°17' E 139°41'0 0.0
2018-Feb-16 12:30N 35°17' E 139°41'0 0.0
2018-Feb-16 12:00N 35°17' E 139°41'0 0.0
2018-Feb-16 11:30N 35°17' E 139°41'0 0.0
2018-Feb-16 11:00N 35°17' E 139°41'0 0.0
2018-Feb-16 10:30N 35°17' E 139°41'0 0.0
2018-Feb-16 10:00N 35°17' E 139°41'0 0.0
2018-Feb-16 09:30N 35°17' E 139°41'0 0.0
2018-Feb-16 09:00N 35°17' E 139°41'0 0.0
2018-Feb-16 08:30N 35°17' E 139°41'0 0.0
2018-Feb-16 08:00N 35°17' E 139°41'0 0.0
2018-Feb-16 07:30N 35°17' E 139°41'0 0.0
2018-Feb-16 07:00N 35°17' E 139°41'0 0.0
2018-Feb-16 06:29N 35°17' E 139°41'0 0.0
2018-Feb-16 06:00N 35°17' E 139°41'0 0.0
2018-Feb-16 05:30N 35°17' E 139°41'0 0.0
2018-Feb-16 05:00N 35°17' E 139°41'0 0.0
2018-Feb-16 04:30N 35°17' E 139°41'0 0.0
2018-Feb-16 04:00N 35°17' E 139°41'0 0.0
2018-Feb-16 03:30N 35°17' E 139°41'0 0.0
2018-Feb-16 03:00N 35°17' E 139°41'0 0.0
2018-Feb-16 02:30N 35°17' E 139°41'0 0.0
2018-Feb-16 01:59N 35°17' E 139°41'0 0.0
2018-Feb-16 01:30N 35°17' E 139°41'2 3.4
2018-Feb-16 01:00N 35°19' E 139°42'510.9
2018-Feb-16 00:30N 35°23' E 139°38'0 0.2
2018-Feb-16 00:00N 35°23' E 139°38'0 0.2
2018-Feb-15 23:30N 35°23' E 139°38'0 0.7
2018-Feb-15 23:00N 35°24' E 139°38'0 0.5
2018-Feb-15 22:30N 35°24' E 139°38'0 0.4
2018-Feb-15 22:00N 35°24' E 139°38'1 1.6
2018-Feb-15 21:30N 35°24' E 139°39'0 0.3
2018-Feb-15 21:00N 35°23' E 139°39'0 0.0
2018-Feb-15 20:30N 35°23' E 139°39'0 0.0
2018-Feb-15 20:00N 35°23' E 139°39'0 0.0
2018-Feb-15 19:30N 35°23' E 139°39'0 0.0
2018-Feb-15 19:00N 35°23' E 139°39'3 6.8
2018-Feb-15 18:30N 35°20' E 139°42'714.0
2018-Feb-15 18:01N 35°14' E 139°45'2 3.6
2018-Feb-15 17:31N 35°16' E 139°46'611.7
2018-Feb-15 17:01N 35°21' E 139°42'2 4.9
2018-Feb-15 16:31N 35°23' E 139°40'1 3.0
2018-Feb-15 16:01N 35°22' E 139°41'5 9.1
2018-Feb-15 15:30N 35°17' E 139°41'0 0.8
2018-Feb-15 15:01N 35°17' E 139°41'0 0.0
2018-Feb-15 14:31N 35°17' E 139°41'0 0.0
2018-Feb-15 14:01N 35°17' E 139°41'0 0.0
2018-Feb-15 13:30N 35°17' E 139°41'0 0.0
2018-Feb-15 13:01N 35°17' E 139°41'0 0.0
2018-Feb-15 12:30N 35°17' E 139°41'0 0.0
2018-Feb-15 12:00N 35°17' E 139°41'0 0.0
2018-Feb-15 11:30N 35°17' E 139°41'0 0.0
2018-Feb-15 11:00N 35°17' E 139°41'0 0.0
2018-Feb-15 10:30N 35°17' E 139°41'0 0.8
2018-Feb-15 10:00N 35°17' E 139°41'611.4
2018-Feb-15 09:30N 35°23' E 139°42'510.7
2018-Feb-15 09:01N 35°28' E 139°42'0 0.3
2018-Feb-15 08:31N 35°28' E 139°43'510.0
2018-Feb-15 08:01N 35°24' E 139°46'611.6
2018-Feb-15 07:30N 35°18' E 139°44'612.2
2018-Feb-15 07:00N 35°12' E 139°47'1 2.6
2018-Feb-15 06:30N 35°11' E 139°46'4 6.1
2018-Feb-15 05:56N 35°13' E 139°43'0 0.0
2018-Feb-15 05:29N 35°13' E 139°43'0 0.0
2018-Feb-15 05:00N 35°13' E 139°43'0 0.0
2018-Feb-15 04:28N 35°13' E 139°43'0 0.0
2018-Feb-15 03:55N 35°13' E 139°43'0 0.2
2018-Feb-15 03:08N 35°13' E 139°43'0 2.5
2018-Feb-15 03:00N 35°13' E 139°43'2 5.0
2018-Feb-15 02:30N 35°14' E 139°46'612.2
2018-Feb-15 02:00N 35°19' E 139°43'5 9.0
2018-Feb-15 01:30N 35°23' E 139°40'1 2.2
2018-Feb-15 01:00N 35°24' E 139°39'0 0.3
2018-Feb-15 00:31N 35°24' E 139°39'1 3.0
2018-Feb-15 00:00N 35°23' E 139°40'510.6
2018-Feb-14 23:30N 35°17' E 139°41'1 1.5
2018-Feb-14 23:00N 35°17' E 139°41'0 0.0
2018-Feb-14 22:30N 35°17' E 139°41'0 0.0
2018-Feb-14 21:58N 35°17' E 139°41'0 0.0
2018-Feb-14 21:30N 35°17' E 139°41'0 0.0
2018-Feb-14 21:00N 35°17' E 139°41'0 0.0
2018-Feb-14 20:30N 35°17' E 139°41'0 0.0
2018-Feb-14 19:59N 35°17' E 139°41'0 0.0
2018-Feb-14 19:30N 35°17' E 139°41'0 0.0
2018-Feb-14 19:00N 35°17' E 139°41'0 0.0
2018-Feb-14 18:30N 35°17' E 139°41'0 0.0
2018-Feb-14 18:00N 35°17' E 139°41'0 0.0
2018-Feb-14 17:30N 35°17' E 139°41'0 0.0
2018-Feb-14 17:00N 35°17' E 139°41'0 0.0
2018-Feb-14 16:30N 35°17' E 139°41'0 0.0
2018-Feb-14 15:59N 35°17' E 139°41'0 0.0
2018-Feb-14 15:27N 35°17' E 139°41'0 0.0
2018-Feb-14 15:00N 35°17' E 139°41'0 0.0
2018-Feb-14 14:30N 35°17' E 139°41'0 0.0
2018-Feb-14 14:00N 35°17' E 139°41'0 0.0
2018-Feb-14 13:30N 35°17' E 139°41'0 0.0
2018-Feb-14 13:00N 35°17' E 139°41'0 0.0
2018-Feb-14 12:30N 35°17' E 139°41'0 0.0
2018-Feb-14 12:00N 35°17' E 139°41'0 0.0
2018-Feb-14 11:29N 35°17' E 139°41'0 0.0
2018-Feb-14 11:00N 35°17' E 139°41'0 0.0
2018-Feb-14 10:30N 35°17' E 139°41'0 0.0
2018-Feb-14 10:00N 35°17' E 139°41'  

Dump ship's entire track history